createdAt,value
2023-04-15T00:02:56.668Z,3.63
2023-04-15T00:06:00.123Z,3.38
2023-04-15T00:09:02.711Z,4.82
2023-04-15T00:12:05.985Z,4.50
2023-04-15T00:15:09.548Z,3.78
2023-04-15T00:18:11.844Z,3.28
2023-04-15T00:21:14.414Z,3.65
2023-04-15T00:24:16.796Z,3.22
2023-04-15T00:27:19.082Z,3.22
2023-04-15T00:30:21.437Z,3.20
2023-04-15T00:33:24.147Z,3.22
2023-04-15T00:36:26.596Z,3.72
2023-04-15T00:39:28.902Z,3.78
2023-04-15T00:42:31.512Z,5.65
2023-04-15T00:45:34.532Z,3.53
2023-04-15T00:48:37.646Z,3.97
2023-04-15T00:51:39.938Z,4.63
2023-04-15T00:54:42.987Z,4.50
2023-04-15T00:57:45.756Z,3.47
2023-04-15T01:00:49.478Z,4.38
2023-04-15T01:03:52.662Z,3.90
2023-04-15T01:06:55.085Z,5.32
2023-04-15T01:09:57.937Z,5.22
2023-04-15T01:13:00.553Z,6.07
2023-04-15T01:16:03.487Z,4.88
2023-04-15T01:19:10.959Z,5.00
2023-04-15T01:22:13.320Z,4.80
2023-04-15T01:25:20.052Z,3.85
2023-04-15T01:28:22.464Z,3.83
2023-04-15T01:31:24.798Z,5.97
2023-04-15T01:34:27.377Z,4.82
2023-04-15T01:37:49.604Z,4.63
2023-04-15T01:40:53.191Z,5.22
2023-04-15T01:43:56.925Z,5.57
2023-04-15T01:47:00.977Z,5.10
2023-04-15T01:50:04.861Z,5.97
2023-04-15T01:53:08.875Z,4.78
2023-04-15T01:56:13.839Z,6.78
2023-04-15T01:59:20.397Z,5.40
2023-04-15T02:02:23.916Z,5.07
2023-04-15T02:05:27.996Z,6.18
2023-04-15T02:08:31.429Z,4.95
2023-04-15T02:11:35.518Z,5.25
2023-04-15T02:14:40.976Z,5.68
2023-04-15T02:17:46.185Z,4.68
2023-04-15T02:20:53.040Z,4.55
2023-04-15T02:23:56.685Z,4.80
2023-04-15T02:27:00.234Z,7.00
2023-04-15T02:30:03.960Z,4.50
2023-04-15T02:33:08.077Z,4.90
2023-04-15T02:36:12.714Z,6.03
2023-04-15T02:39:18.821Z,5.18
2023-04-15T02:42:22.470Z,5.03
2023-04-15T02:45:28.256Z,5.80
2023-04-15T02:48:31.760Z,5.55
2023-04-15T02:51:35.200Z,5.75
2023-04-15T02:54:38.574Z,5.93
2023-04-15T02:57:42.319Z,5.28
2023-04-15T03:00:47.181Z,8.38
2023-04-15T03:03:50.719Z,5.65
2023-04-15T03:06:54.151Z,7.03
2023-04-15T03:09:58.082Z,5.25
2023-04-15T03:13:02.266Z,6.15
2023-04-15T03:16:06.659Z,5.60
2023-04-15T03:19:10.455Z,5.28
2023-04-15T03:22:15.990Z,5.10
2023-04-15T03:25:19.413Z,5.53
2023-04-15T03:28:22.967Z,5.93
2023-04-15T03:31:26.824Z,5.68
2023-04-15T03:34:30.582Z,4.80
2023-04-15T03:37:34.311Z,5.78
2023-04-15T03:40:41.448Z,6.07
2023-04-15T03:43:44.850Z,5.00
2023-04-15T03:46:48.512Z,6.47
2023-04-15T03:49:51.965Z,6.32
2023-04-15T03:52:55.449Z,5.88
2023-04-15T03:55:58.896Z,5.70
2023-04-15T03:59:02.521Z,7.30
2023-04-15T04:02:06.351Z,5.15
2023-04-15T04:05:10.803Z,5.38
2023-04-15T04:08:14.556Z,8.23
2023-04-15T04:11:18.209Z,5.28
2023-04-15T04:14:21.703Z,4.55
2023-04-15T04:17:25.458Z,4.90
2023-04-15T04:20:28.973Z,6.88
2023-04-15T04:23:33.015Z,5.55
2023-04-15T04:26:36.724Z,5.18
2023-04-15T04:29:40.213Z,5.32
2023-04-15T04:32:43.881Z,5.95
2023-04-15T04:35:47.467Z,6.03
2023-04-15T04:38:51.344Z,4.97
2023-04-15T04:41:54.804Z,4.85
2023-04-15T04:44:58.273Z,5.57
2023-04-15T04:48:01.959Z,7.18
2023-04-15T04:51:05.850Z,5.05
2023-04-15T04:54:09.876Z,7.78
2023-04-15T04:57:13.937Z,5.45
2023-04-15T05:00:17.698Z,5.63
2023-04-15T05:03:22.282Z,7.07
2023-04-15T05:06:26.359Z,6.95
2023-04-15T05:09:32.478Z,6.10
2023-04-15T05:12:37.819Z,8.23
2023-04-15T05:15:43.480Z,5.75
2023-04-15T05:18:47.129Z,7.03
2023-04-15T05:21:50.667Z,5.72
2023-04-15T05:24:54.179Z,5.82
2023-04-15T05:27:57.665Z,7.10
2023-04-15T05:31:01.739Z,7.55
2023-04-15T05:34:05.800Z,5.40
2023-04-15T05:37:09.379Z,8.10
2023-04-15T05:40:13.042Z,6.32
2023-04-15T05:43:16.467Z,6.78
2023-04-15T05:46:20.050Z,5.53
2023-04-15T05:49:23.831Z,6.82
2023-04-15T05:52:27.563Z,6.55
2023-04-15T05:55:31.375Z,5.90
2023-04-15T05:58:34.872Z,6.05
2023-04-15T06:01:38.568Z,6.32
2023-04-15T06:04:42.898Z,5.25
2023-04-15T06:07:48.313Z,4.88
2023-04-15T06:10:52.254Z,4.45
2023-04-15T06:13:55.771Z,4.60
2023-04-15T06:16:59.335Z,6.68
2023-04-15T06:20:03.448Z,4.15
2023-04-15T06:23:07.066Z,5.13
2023-04-15T06:26:10.835Z,5.50
2023-04-15T06:29:14.615Z,4.57
2023-04-15T06:32:18.056Z,5.15
2023-04-15T06:35:21.748Z,3.97
2023-04-15T06:38:25.302Z,5.40
2023-04-15T06:41:28.788Z,5.05
2023-04-15T06:44:33.911Z,5.20
2023-04-15T06:47:37.694Z,4.38
2023-04-15T06:50:41.540Z,4.95
2023-04-15T06:53:44.958Z,4.03
2023-04-15T06:56:50.238Z,4.72
2023-04-15T06:59:54.790Z,3.80
2023-04-15T07:02:58.424Z,4.25
2023-04-15T07:06:06.622Z,6.63
2023-04-15T07:09:10.349Z,4.30
2023-04-15T07:12:13.792Z,4.93
2023-04-15T07:15:17.465Z,3.78
2023-04-15T07:18:21.041Z,4.20
2023-04-15T07:21:25.959Z,3.50
2023-04-15T07:24:29.572Z,4.63
2023-04-15T07:27:33.257Z,3.58
2023-04-15T07:30:36.887Z,4.30
2023-04-15T07:33:40.376Z,4.25
2023-04-15T07:36:43.862Z,3.28
2023-04-15T07:39:47.624Z,4.43
2023-04-15T07:42:51.639Z,4.95
2023-04-15T07:45:55.700Z,6.10
2023-04-15T07:48:59.177Z,3.65
2023-04-15T07:52:02.820Z,4.05
2023-04-15T07:55:09.738Z,4.53
2023-04-15T07:58:13.183Z,3.35
2023-04-15T08:01:17.990Z,4.00
2023-04-15T08:04:21.968Z,3.77
2023-04-15T08:07:25.720Z,3.72
2023-04-15T08:10:30.973Z,3.15
2023-04-15T08:13:34.390Z,3.72
2023-04-15T08:16:38.034Z,3.40
2023-04-15T08:19:42.657Z,3.65
2023-04-15T08:22:48.021Z,4.20
2023-04-15T08:25:51.509Z,4.25
2023-04-15T08:28:55.855Z,3.35
2023-04-15T08:32:01.033Z,2.72
2023-04-15T08:35:04.838Z,3.10
2023-04-15T08:38:07.331Z,2.30
2023-04-15T08:41:25.472Z,3.22
2023-04-15T08:44:34.715Z,3.40
2023-04-15T08:47:42.019Z,2.58
2023-04-15T08:50:46.831Z,3.42
2023-04-15T08:53:51.126Z,5.15
2023-04-15T08:56:55.203Z,3.15
2023-04-15T08:59:59.027Z,3.35
2023-04-15T09:03:02.773Z,3.33
2023-04-15T09:06:07.151Z,3.95
2023-04-15T09:09:12.501Z,3.92
2023-04-15T09:12:17.289Z,2.92
2023-04-15T09:15:21.328Z,3.35
2023-04-15T09:18:33.019Z,3.13
2023-04-15T09:21:36.493Z,6.45
2023-04-15T09:24:42.395Z,3.58
2023-04-15T09:27:53.265Z,4.07
2023-04-15T09:31:01.348Z,3.53
2023-04-15T09:34:05.737Z,2.92
2023-04-15T09:37:11.214Z,4.35
2023-04-15T09:40:14.931Z,3.13
2023-04-15T09:43:18.571Z,4.00
2023-04-15T09:46:44.723Z,4.95
2023-04-15T09:49:57.130Z,5.22
2023-04-15T09:53:04.195Z,3.38
2023-04-15T09:56:09.179Z,4.65
2023-04-15T09:59:13.103Z,3.95
2023-04-15T10:02:18.823Z,4.57
2023-04-15T10:05:23.608Z,3.30
2023-04-15T10:08:35.176Z,3.33
2023-04-15T10:11:38.689Z,3.33
2023-04-15T10:14:44.544Z,3.72
2023-04-15T10:17:50.690Z,4.15
2023-04-15T10:20:54.878Z,4.45
2023-04-15T10:23:59.231Z,5.82
2023-04-15T10:27:04.848Z,4.15
2023-04-15T10:30:09.381Z,6.53
2023-04-15T10:33:14.486Z,4.38
2023-04-15T10:36:19.765Z,4.00
2023-04-15T10:39:35.211Z,6.22
2023-04-15T10:42:38.678Z,4.45
2023-04-15T10:45:45.456Z,3.92
2023-04-15T10:48:53.662Z,5.68
2023-04-15T10:52:00.129Z,6.18
2023-04-15T10:55:14.508Z,4.57
2023-04-15T10:58:17.951Z,4.72
2023-04-15T11:01:25.416Z,3.85
2023-04-15T11:04:51.972Z,4.18
2023-04-15T11:07:58.958Z,4.10
2023-04-15T11:11:02.533Z,3.92
2023-04-15T11:14:05.963Z,4.55
2023-04-15T11:17:09.510Z,4.45
2023-04-15T11:20:16.193Z,5.80
2023-04-15T11:23:20.770Z,4.00
2023-04-15T11:26:27.479Z,4.18
2023-04-15T11:29:35.113Z,3.80
2023-04-15T11:32:42.701Z,3.72
2023-04-15T11:35:46.378Z,3.92
2023-04-15T11:38:49.889Z,3.38
2023-04-15T11:41:53.463Z,5.38
2023-04-15T11:45:17.163Z,3.67
2023-04-15T11:48:22.799Z,5.70
2023-04-15T11:51:26.243Z,4.25
2023-04-15T11:54:28.561Z,5.88
2023-04-15T11:57:35.716Z,4.05
2023-04-15T12:00:40.344Z,5.88
2023-04-15T12:03:47.445Z,4.88
2023-04-15T12:06:49.849Z,5.38
2023-04-15T12:09:58.380Z,4.95
2023-04-15T12:13:00.670Z,4.43
2023-04-15T12:16:04.213Z,5.40
2023-04-15T12:19:09.940Z,4.70
2023-04-15T12:22:14.424Z,5.55
2023-04-15T12:25:16.741Z,5.88
2023-04-15T12:28:18.969Z,4.80
2023-04-15T12:31:21.262Z,4.95
2023-04-15T12:34:35.069Z,4.65
2023-04-15T12:37:37.324Z,5.07
2023-04-15T12:40:42.620Z,4.53
2023-04-15T12:43:46.913Z,5.00
2023-04-15T12:46:49.308Z,4.90
2023-04-15T12:49:51.878Z,4.25
2023-04-15T12:52:54.128Z,5.78
2023-04-15T12:55:56.674Z,3.35
2023-04-15T12:58:58.931Z,4.40
2023-04-15T13:02:01.355Z,4.00
2023-04-15T13:05:04.417Z,4.03
2023-04-15T13:08:07.060Z,4.35
2023-04-15T13:11:09.393Z,4.32
2023-04-15T13:14:13.354Z,4.50
2023-04-15T13:17:17.685Z,4.57
2023-04-15T13:20:19.913Z,3.53
2023-04-15T13:23:22.203Z,3.53
2023-04-15T13:26:24.475Z,5.95
2023-04-15T13:29:26.865Z,3.83
2023-04-15T13:32:29.249Z,4.13
2023-04-15T13:35:32.986Z,3.60
2023-04-15T13:38:35.255Z,4.38
2023-04-15T13:41:37.685Z,4.00
2023-04-15T13:44:40.241Z,4.20
2023-04-15T13:47:42.707Z,3.67
2023-04-15T13:50:45.843Z,3.85
2023-04-15T13:53:48.204Z,6.03
2023-04-15T13:56:50.604Z,4.40
2023-04-15T13:59:53.094Z,2.95
2023-04-15T14:02:55.547Z,3.65
2023-04-15T14:05:58.618Z,3.95
2023-04-15T14:09:01.044Z,2.80
2023-04-15T14:12:03.517Z,3.95
2023-04-15T14:15:06.417Z,3.33
2023-04-15T14:18:08.981Z,3.72
2023-04-15T14:21:11.171Z,3.35
2023-04-15T14:24:13.391Z,7.03
2023-04-15T14:27:16.653Z,4.53
2023-04-15T14:30:18.883Z,4.43
2023-04-15T14:33:21.336Z,4.30
2023-04-15T14:36:23.620Z,2.95
2023-04-15T14:39:26.000Z,4.18
2023-04-15T14:42:28.220Z,3.05
2023-04-15T14:45:31.304Z,3.03
2023-04-15T14:48:33.670Z,3.35
2023-04-15T14:51:36.087Z,3.70
2023-04-15T14:54:38.382Z,3.38
2023-04-15T14:57:42.532Z,2.95
2023-04-15T15:00:45.100Z,2.85
2023-04-15T15:03:48.010Z,2.85
2023-04-15T15:06:50.386Z,3.67
2023-04-15T15:09:52.643Z,3.92
2023-04-15T15:12:54.873Z,3.13
2023-04-15T15:15:57.662Z,2.35
2023-04-15T15:19:00.661Z,3.60
2023-04-15T15:22:03.775Z,4.60
2023-04-15T15:25:06.455Z,3.47
2023-04-15T15:28:08.819Z,3.55
2023-04-15T15:31:11.283Z,2.78
2023-04-15T15:34:13.512Z,4.90
2023-04-15T15:37:15.982Z,4.28
2023-04-15T15:40:18.281Z,2.58
2023-04-15T15:43:20.863Z,4.28
2023-04-15T15:46:24.469Z,3.63
2023-04-15T15:49:28.374Z,3.75
2023-04-15T15:52:30.635Z,4.07
2023-04-15T15:55:32.958Z,3.55
2023-04-15T15:58:35.285Z,3.47
2023-04-15T16:01:37.652Z,3.33
2023-04-15T16:04:40.679Z,2.83
2023-04-15T16:07:43.056Z,3.58
2023-04-15T16:10:46.137Z,3.17
2023-04-15T16:13:48.333Z,2.78
2023-04-15T16:16:50.689Z,3.88
2023-04-15T16:20:00.244Z,3.97
2023-04-15T16:26:08.782Z,3.10
2023-04-15T16:29:10.991Z,3.03
2023-04-15T16:32:13.355Z,3.03
2023-04-15T16:35:17.045Z,3.95
2023-04-15T16:38:19.218Z,2.80
2023-04-15T16:41:21.598Z,3.25
2023-04-15T16:44:24.794Z,2.92
2023-04-15T16:47:27.291Z,2.47
2023-04-15T16:50:29.735Z,2.85
2023-04-15T16:53:32.115Z,3.03
2023-04-15T16:56:34.350Z,2.85
2023-04-15T16:59:38.662Z,4.75
2023-04-15T17:02:41.714Z,4.03
2023-04-15T17:05:44.391Z,2.78
2023-04-15T17:08:46.772Z,4.65
2023-04-15T17:11:49.279Z,3.08
2023-04-15T17:14:51.676Z,3.80
2023-04-15T17:17:54.316Z,3.15
2023-04-15T17:20:56.948Z,2.95
2023-04-15T17:24:00.057Z,3.90
2023-04-15T17:27:08.640Z,2.78
2023-04-15T17:30:12.419Z,3.78
2023-04-15T17:33:56.504Z,3.30
2023-04-15T17:36:56.917Z,3.33
2023-04-15T17:40:19.218Z,3.13
2023-04-15T17:43:41.532Z,3.17
2023-04-15T17:47:03.873Z,2.65
2023-04-15T17:50:26.390Z,5.45
2023-04-15T17:53:48.592Z,2.17
2023-04-15T17:57:10.934Z,4.65
2023-04-15T18:00:33.175Z,4.15
2023-04-15T18:03:55.509Z,2.95
2023-04-15T18:07:17.950Z,4.70
2023-04-15T18:10:40.320Z,3.28
2023-04-15T18:14:03.663Z,3.30
2023-04-15T18:17:26.285Z,2.58
2023-04-15T18:20:48.469Z,3.08
2023-04-15T18:23:50.703Z,3.38
2023-04-15T18:26:53.251Z,4.53
2023-04-15T18:29:55.422Z,3.38
2023-04-15T18:32:57.796Z,3.25
2023-04-15T18:36:00.107Z,3.42
2023-04-15T18:39:02.536Z,2.58
2023-04-15T18:42:04.992Z,3.95
2023-04-15T18:45:07.709Z,3.47
2023-04-15T18:48:10.307Z,3.67
2023-04-15T18:51:12.569Z,2.80
2023-04-15T18:54:16.745Z,4.65
2023-04-15T18:57:22.743Z,3.33
2023-04-15T19:00:31.300Z,2.53
2023-04-15T19:03:33.664Z,3.33
2023-04-15T19:06:36.485Z,3.30
2023-04-15T19:09:38.731Z,4.55
2023-04-15T19:12:41.191Z,3.17
2023-04-15T19:15:43.425Z,3.17
2023-04-15T19:18:45.824Z,2.50
2023-04-15T19:21:50.365Z,4.47
2023-04-15T19:24:52.783Z,3.10
2023-04-15T19:27:55.074Z,4.03
2023-04-15T19:30:58.147Z,2.60
2023-04-15T19:34:00.453Z,3.78
2023-04-15T19:37:02.645Z,3.55
2023-04-15T19:40:05.215Z,2.63
2023-04-15T19:43:07.584Z,2.65
2023-04-15T19:46:10.102Z,3.55
2023-04-15T19:49:12.590Z,2.90
2023-04-15T19:52:14.913Z,2.47
2023-04-15T19:55:17.298Z,4.25
2023-04-15T19:58:19.511Z,4.90
2023-04-15T20:01:23.043Z,4.35
2023-04-15T20:04:26.217Z,3.05
2023-04-15T20:07:28.626Z,2.83
2023-04-15T20:10:32.071Z,4.85
2023-04-15T20:13:34.461Z,2.65
2023-04-15T20:16:38.556Z,2.85
2023-04-15T20:19:40.893Z,3.33
2023-04-15T20:22:43.061Z,3.33
2023-04-15T20:25:45.447Z,3.58
2023-04-15T20:28:47.699Z,3.05
2023-04-15T20:31:50.365Z,3.97
2023-04-15T20:34:52.791Z,2.45
2023-04-15T20:37:55.145Z,2.30
2023-04-15T20:40:58.352Z,3.50
2023-04-15T20:44:00.620Z,4.88
2023-04-15T20:47:02.938Z,3.33
2023-04-15T20:50:05.467Z,2.30
2023-04-15T20:53:07.699Z,2.85
2023-04-15T20:56:10.151Z,2.90
2023-04-15T20:59:12.364Z,3.45
2023-04-15T21:02:14.685Z,3.22
2023-04-15T21:05:17.175Z,2.47
2023-04-15T21:08:19.670Z,3.22
2023-04-15T21:11:43.086Z,3.25
2023-04-15T21:14:45.182Z,2.47
2023-04-15T21:17:47.514Z,3.20
2023-04-15T21:21:02.547Z,2.85
2023-04-15T21:24:07.016Z,3.42
2023-04-15T21:27:09.964Z,3.05
2023-04-15T21:30:12.875Z,2.90
2023-04-15T21:33:15.532Z,3.45
2023-04-15T21:36:17.904Z,2.90
2023-04-15T21:39:21.061Z,3.15
2023-04-15T21:42:23.354Z,4.03
2023-04-15T21:45:26.020Z,3.10
2023-04-15T21:48:28.709Z,3.75
2023-04-15T21:51:31.747Z,2.58
2023-04-15T21:54:33.966Z,2.00
2023-04-15T21:57:36.429Z,2.97
2023-04-15T22:00:40.383Z,2.50
2023-04-15T22:03:43.482Z,2.75
2023-04-15T22:06:46.637Z,3.40
2023-04-15T22:09:48.979Z,3.30
2023-04-15T22:12:51.244Z,2.30
2023-04-15T22:15:53.479Z,2.80
2023-04-15T22:18:56.202Z,2.42
2023-04-15T22:21:59.147Z,2.83
2023-04-15T22:25:01.444Z,2.50
2023-04-15T22:28:07.138Z,2.65
2023-04-15T22:31:09.473Z,2.83
2023-04-15T22:34:11.864Z,3.17
2023-04-15T22:37:14.310Z,3.92
2023-04-15T22:40:16.749Z,2.60
2023-04-15T22:43:18.961Z,2.80
2023-04-15T22:46:21.359Z,2.90
2023-04-15T22:49:23.594Z,3.60
2023-04-15T22:52:30.680Z,2.22
2023-04-15T22:55:33.509Z,2.22
2023-04-15T22:58:35.791Z,2.83
2023-04-15T23:01:38.564Z,2.42
2023-04-15T23:04:41.074Z,2.67
2023-04-15T23:07:43.307Z,2.70
2023-04-15T23:10:45.807Z,2.60
2023-04-15T23:13:48.029Z,2.80
2023-04-15T23:16:50.475Z,2.92
2023-04-15T23:19:52.709Z,2.50
2023-04-15T23:22:54.900Z,2.70
2023-04-15T23:25:57.203Z,3.88
2023-04-15T23:28:59.434Z,2.85
2023-04-15T23:32:01.845Z,2.55
2023-04-15T23:35:04.411Z,3.05
2023-04-15T23:38:06.764Z,3.58
2023-04-15T23:41:10.147Z,2.60
2023-04-15T23:44:12.447Z,3.45
2023-04-15T23:47:14.762Z,3.22
2023-04-15T23:50:17.050Z,2.83
2023-04-15T23:53:19.328Z,2.50
2023-04-15T23:56:21.606Z,2.17
2023-04-15T23:59:23.920Z,3.22
